Time;durP1;ratioP1;P1;durP2;ratioP2;P2;SDS_P1;SDS_P2;PMS_P1;PMS_P2;Temp;Humidity;BMP_temperature;BMP_pressure;BME280_temperature;BME280_humidity;BME280_pressure;Samples;Min_cycle;Max_cycle;Signal;HPM_P1;HPM_P2
2022/12/24 00:01:32;;;;;;;13.32;3.17;;;9.50;99.90;;;;;;4728658;28;10000521;-70
2022/12/24 00:03:58;;;;;;;11.82;2.60;;;9.60;99.90;;;;;;5078218;28;20028;-71
2022/12/24 00:06:23;;;;;;;15.93;3.00;;;9.60;99.90;;;;;;5083557;28;20078;-72
2022/12/24 00:08:50;;;;;;;9.80;2.10;;;9.80;99.90;;;;;;5074797;28;20723;-71
2022/12/24 00:11:16;;;;;;;11.13;2.50;;;9.80;99.90;;;;;;5078517;28;20102;-71
2022/12/24 00:13:41;;;;;;;10.75;2.28;;;9.80;99.90;;;;;;5076609;28;20035;-71
2022/12/24 00:16:07;;;;;;;11.02;2.50;;;9.80;99.90;;;;;;5077775;28;20681;-71
2022/12/24 00:18:32;;;;;;;10.93;2.35;;;9.80;99.90;;;;;;5073045;28;20086;-71
2022/12/24 00:20:58;;;;;;;9.73;2.45;;;9.70;99.90;;;;;;5081867;28;20024;-71
2022/12/24 00:23:24;;;;;;;8.48;2.20;;;9.70;99.90;;;;;;5072221;28;20039;-71
2022/12/24 00:25:49;;;;;;;10.90;2.20;;;9.70;99.90;;;;;;5080562;28;20028;-71
2022/12/24 00:28:21;;;;;;;11.50;2.53;;;9.60;99.90;;;;;;5081430;28;20094;-71
2022/12/24 00:30:47;;;;;;;9.65;2.67;;;9.60;99.90;;;;;;5078568;28;20027;-71
2022/12/24 00:33:12;;;;;;;8.18;2.08;;;9.60;99.90;;;;;;5077923;28;20024;-71
2022/12/24 00:35:39;;;;;;;8.20;2.08;;;9.70;99.90;;;;;;5082811;28;20038;-71
2022/12/24 00:38:05;;;;;;;6.68;2.63;;;9.60;99.90;;;;;;5077677;28;20028;-71
2022/12/24 00:40:31;;;;;;;8.68;2.25;;;9.60;99.90;;;;;;5081024;28;20035;-71
2022/12/24 00:42:57;;;;;;;9.45;2.35;;;9.50;99.90;;;;;;5076835;28;20028;-71
2022/12/24 00:45:23;;;;;;;11.23;2.40;;;9.50;99.90;;;;;;5071647;28;20052;-71
2022/12/24 00:47:48;;;;;;;9.85;2.53;;;9.50;99.90;;;;;;5075335;28;20012;-72
2022/12/24 00:50:14;;;;;;;9.57;2.45;;;9.50;99.90;;;;;;5080158;28;20387;-71
2022/12/24 00:52:40;;;;;;;10.95;2.90;;;9.50;99.90;;;;;;5071243;28;20031;-71
2022/12/24 00:55:06;;;;;;;6.68;2.80;;;9.50;99.90;;;;;;5079957;28;20016;-70
2022/12/24 00:57:32;;;;;;;11.55;2.83;;;9.50;99.90;;;;;;5081469;28;20032;-71
2022/12/24 00:59:57;;;;;;;9.35;2.50;;;9.50;99.90;;;;;;5067464;28;20078;-70
2022/12/24 01:02:23;;;;;;;10.27;2.78;;;9.50;99.90;;;;;;5072943;28;20059;-70
2022/12/24 01:07:33;;;;;;;12.20;3.15;;;9.40;99.90;;;;;;5082078;28;20110;-70
2022/12/24 01:09:58;;;;;;;9.85;3.38;;;9.50;99.90;;;;;;5080950;28;20035;-70
2022/12/24 01:12:24;;;;;;;11.15;3.30;;;9.50;99.90;;;;;;5081242;28;20111;-70
2022/12/24 01:14:50;;;;;;;10.88;3.05;;;9.50;99.90;;;;;;5084523;28;20113;-70
2022/12/24 01:17:16;;;;;;;10.63;3.38;;;9.50;99.90;;;;;;5082689;28;20431;-70
2022/12/24 01:19:41;;;;;;;9.80;3.40;;;9.50;99.90;;;;;;5080822;28;20020;-71
2022/12/24 01:22:07;;;;;;;13.55;4.25;;;9.50;99.90;;;;;;5074724;28;20016;-70
2022/12/24 01:24:33;;;;;;;10.23;3.25;;;9.60;99.90;;;;;;5083449;28;20427;-71
2022/12/24 01:26:58;;;;;;;9.63;3.65;;;9.50;99.90;;;;;;5078945;28;20474;-71
2022/12/24 01:29:24;;;;;;;12.10;3.45;;;9.50;99.90;;;;;;5079782;28;20110;-70
2022/12/24 01:31:49;;;;;;;10.57;3.53;;;9.50;99.90;;;;;;5077999;28;20517;-71
2022/12/24 01:34:15;;;;;;;12.93;3.83;;;9.50;99.90;;;;;;5079250;28;20019;-71
2022/12/24 01:36:40;;;;;;;10.88;3.45;;;9.50;99.90;;;;;;5081456;28;20024;-71
2022/12/24 01:39:06;;;;;;;11.50;3.50;;;9.40;99.90;;;;;;5082108;28;20478;-70
2022/12/24 01:44:21;;;;;;;9.60;3.13;;;9.40;99.90;;;;;;5072161;28;20344;-70
2022/12/24 01:46:48;;;;;;;14.95;3.45;;;9.40;99.90;;;;;;5061901;28;20058;-71
2022/12/24 01:49:15;;;;;;;10.63;3.17;;;9.40;99.90;;;;;;5060757;28;20084;-71
2022/12/24 01:52:06;;;;;;;10.55;3.03;;;9.50;99.90;;;;;;5057979;28;20119;-71
2022/12/24 01:54:44;;;;;;;15.02;3.67;;;9.50;99.90;;;;;;5017195;28;20071;-71
2022/12/24 01:57:21;;;;;;;10.52;2.95;;;9.50;99.90;;;;;;5053740;28;20044;-71
2022/12/24 01:59:50;;;;;;;11.00;3.55;;;9.50;99.90;;;;;;5055483;28;20040;-71
2022/12/24 02:02:16;;;;;;;11.00;3.25;;;9.50;99.90;;;;;;5058998;28;20036;-71
2022/12/24 02:05:14;;;;;;;13.55;3.20;;;9.40;99.90;;;;;;5050620;28;20690;-71
2022/12/24 02:07:40;;;;;;;14.82;3.78;;;9.40;99.90;;;;;;5059313;28;20064;-72
2022/12/24 02:10:08;;;;;;;10.77;3.10;;;9.40;99.90;;;;;;5060829;28;20051;-72
2022/12/24 02:12:36;;;;;;;13.32;3.33;;;9.40;99.90;;;;;;5053736;28;20059;-71
2022/12/24 02:15:03;;;;;;;16.08;3.67;;;9.40;99.90;;;;;;5048154;28;20024;-71
2022/12/24 02:17:40;;;;;;;14.00;3.33;;;9.40;99.90;;;;;;5054984;28;20159;-71
2022/12/24 02:20:21;;;;;;;12.30;3.40;;;9.30;99.90;;;;;;5063556;28;20386;-71
2022/12/24 02:23:01;;;;;;;10.57;2.97;;;9.30;99.90;;;;;;5055361;28;20066;-71
2022/12/24 02:26:05;;;;;;;14.65;3.65;;;9.30;99.90;;;;;;5056350;28;20219;-72
2022/12/24 02:28:37;;;;;;;14.38;3.50;;;9.40;99.90;;;;;;5060178;28;20112;-71
2022/12/24 02:31:18;;;;;;;16.23;3.45;;;9.40;99.90;;;;;;5062609;28;20032;-71
2022/12/24 02:34:09;;;;;;;14.70;3.85;;;9.40;99.90;;;;;;5061164;28;20029;-71
2022/12/24 02:36:45;;;;;;;12.15;3.10;;;9.40;99.90;;;;;;5062442;28;20031;-71
2022/12/24 02:39:18;;;;;;;13.00;3.47;;;9.30;99.90;;;;;;5061335;28;20040;-71
2022/12/24 02:42:05;;;;;;;13.35;3.22;;;9.30;99.90;;;;;;5063434;28;20037;-71
2022/12/24 02:44:39;;;;;;;13.63;3.33;;;9.30;99.90;;;;;;5057013;28;20033;-71
2022/12/24 02:47:07;;;;;;;16.13;3.60;;;9.30;99.90;;;;;;5082700;28;20032;-71
2022/12/24 02:49:34;;;;;;;12.40;3.22;;;9.30;99.90;;;;;;5074610;28;20067;-71
2022/12/24 02:52:00;;;;;;;19.98;3.75;;;9.20;99.90;;;;;;5079739;28;20028;-71
2022/12/24 02:54:26;;;;;;;16.48;3.78;;;9.10;99.90;;;;;;5069679;28;20036;-71
2022/12/24 02:57:16;;;;;;;13.27;3.05;;;9.10;99.90;;;;;;5071652;28;20584;-71
2022/12/24 03:00:04;;;;;;;14.88;3.38;;;9.00;99.90;;;;;;5079406;28;20035;-71
2022/12/24 03:02:39;;;;;;;14.45;3.40;;;9.00;99.90;;;;;;5077481;28;20062;-71
2022/12/24 03:05:17;;;;;;;14.80;3.55;;;8.90;99.90;;;;;;5071000;28;20040;-71
2022/12/24 03:07:49;;;;;;;14.77;3.13;;;8.90;99.90;;;;;;5078303;28;20059;-71
2022/12/24 03:10:20;;;;;;;15.85;3.50;;;;;;;;;;5069618;28;20115;-71
2022/12/24 03:12:53;;;;;;;16.52;3.63;;;8.90;99.90;;;;;;5078016;28;20542;-72
2022/12/24 03:15:22;;;;;;;14.75;3.42;;;8.90;99.90;;;;;;5077773;28;20020;-72
2022/12/24 03:17:51;;;;;;;13.38;3.47;;;8.90;99.90;;;;;;5083800;28;20028;-71
2022/12/24 03:20:22;;;;;;;18.80;3.65;;;8.90;99.90;;;;;;5082246;28;20028;-72
2022/12/24 03:22:47;;;;;;;13.88;3.67;;;8.90;99.90;;;;;;5081117;28;20032;-72
2022/12/24 03:25:13;;;;;;;12.43;3.47;;;8.80;99.90;;;;;;5075618;28;20682;-71
2022/12/24 03:27:40;;;;;;;17.10;3.13;;;8.90;99.90;;;;;;5084159;28;20572;-71
2022/12/24 03:30:10;;;;;;;11.73;3.10;;;8.80;99.90;;;;;;5080763;28;20036;-71
2022/12/24 03:32:37;;;;;;;19.13;3.45;;;8.80;99.90;;;;;;5078198;28;20050;-71
2022/12/24 03:35:03;;;;;;;10.10;3.10;;;8.80;99.90;;;;;;5079658;28;20027;-71
2022/12/24 03:37:28;;;;;;;11.88;3.17;;;8.80;99.90;;;;;;5076180;28;20162;-72
2022/12/24 03:39:54;;;;;;;21.35;4.60;;;8.90;99.90;;;;;;5080137;28;20107;-71
2022/12/24 03:42:19;;;;;;;18.65;3.88;;;8.80;99.90;;;;;;5071846;28;20046;-72
2022/12/24 03:44:45;;;;;;;13.70;3.60;;;8.80;99.90;;;;;;5083283;28;20502;-72
2022/12/24 03:47:10;;;;;;;13.82;3.60;;;8.80;99.90;;;;;;5074668;28;20020;-71
2022/12/24 03:49:36;;;;;;;17.67;3.92;;;8.80;99.90;;;;;;5077405;28;20462;-70
2022/12/24 03:52:02;;;;;;;12.40;3.25;;;8.80;99.90;;;;;;5079662;28;20034;-71
2022/12/24 03:54:28;;;;;;;12.75;3.67;;;8.80;99.90;;;;;;5076545;28;20693;-71
2022/12/24 03:56:53;;;;;;;17.80;3.72;;;8.90;99.90;;;;;;5078815;28;22497;-71
2022/12/24 03:59:19;;;;;;;17.95;4.50;;;8.90;99.90;;;;;;5080439;28;20028;-71
2022/12/24 04:01:44;;;;;;;16.80;3.80;;;8.90;99.90;;;;;;5082259;28;20059;-71
2022/12/24 04:04:10;;;;;;;16.05;3.97;;;8.90;99.90;;;;;;5070754;28;20044;-71
2022/12/24 04:06:35;;;;;;;16.42;3.35;;;8.90;99.90;;;;;;5085441;28;20110;-71
2022/12/24 04:09:03;;;;;;;15.30;3.65;;;8.80;99.90;;;;;;5079292;28;20074;-71
2022/12/24 04:11:30;;;;;;;14.23;3.60;;;8.80;99.90;;;;;;5080401;28;20039;-71
2022/12/24 04:13:55;;;;;;;17.48;3.72;;;8.70;99.90;;;;;;5073027;28;20039;-71
2022/12/24 04:16:21;;;;;;;16.88;3.88;;;8.70;99.90;;;;;;5079208;28;20020;-71
2022/12/24 04:18:47;;;;;;;16.55;3.33;;;8.60;99.90;;;;;;5083502;28;20036;-71
2022/12/24 04:21:12;;;;;;;22.45;3.83;;;8.60;99.90;;;;;;5086133;28;20024;-71
2022/12/24 04:23:40;;;;;;;20.55;3.78;;;8.50;99.90;;;;;;5078535;28;20042;-71
2022/12/24 04:26:07;;;;;;;16.13;4.18;;;8.40;99.90;;;;;;5080292;28;20051;-71
2022/12/24 04:28:33;;;;;;;22.85;4.40;;;8.30;99.90;;;;;;5075911;28;20029;-72
2022/12/24 04:31:05;;;;;;;18.60;4.05;;;8.30;99.90;;;;;;5082432;28;20028;-71
2022/12/24 04:33:30;;;;;;;20.80;4.00;;;8.20;99.90;;;;;;5073582;28;20016;-71
2022/12/24 04:35:57;;;;;;;23.92;4.03;;;8.20;99.90;;;;;;5080069;28;20094;-71
2022/12/24 04:38:22;;;;;;;12.98;3.30;;;8.10;99.90;;;;;;5081296;28;20016;-71
2022/12/24 04:40:56;;;;;;;15.55;3.72;;;8.00;99.90;;;;;;5084377;28;20024;-71
2022/12/24 04:43:21;;;;;;;18.90;3.75;;;7.90;99.90;;;;;;5072224;28;20489;-71
2022/12/24 04:45:47;;;;;;;18.80;3.97;;;7.90;99.90;;;;;;5065732;28;20059;-71
2022/12/24 04:48:12;;;;;;;22.77;3.85;;;7.80;99.90;;;;;;5054745;28;20498;-71
2022/12/24 04:50:38;;;;;;;16.05;4.03;;;7.80;99.90;;;;;;5050995;28;20021;-71
2022/12/24 04:53:04;;;;;;;18.95;3.65;;;7.80;99.90;;;;;;5051147;28;20021;-72
2022/12/24 04:55:30;;;;;;;21.85;3.50;;;7.70;99.90;;;;;;5056696;28;20033;-71
2022/12/24 04:57:55;;;;;;;18.27;3.92;;;7.70;99.90;;;;;;5056567;28;20029;-72
2022/12/24 05:00:21;;;;;;;17.92;3.72;;;7.70;99.90;;;;;;5059310;28;20498;-71
2022/12/24 05:02:47;;;;;;;16.23;3.58;;;7.70;99.90;;;;;;5059653;28;20028;-72
2022/12/24 05:05:13;;;;;;;20.60;4.00;;;7.70;99.90;;;;;;5057227;28;20155;-71
2022/12/24 05:07:39;;;;;;;12.85;3.30;;;7.60;99.90;;;;;;5059947;28;20509;-71
2022/12/24 05:10:05;;;;;;;21.52;3.67;;;7.60;99.90;;;;;;5063784;28;20111;-72
2022/12/24 05:12:31;;;;;;;17.02;3.42;;;7.60;99.90;;;;;;5053971;28;20032;-72
2022/12/24 05:14:57;;;;;;;11.48;3.60;;;7.60;99.90;;;;;;5055723;28;20650;-71
2022/12/24 05:17:22;;;;;;;18.25;4.07;;;7.60;99.90;;;;;;5059854;28;20036;-71
2022/12/24 05:19:48;;;;;;;15.68;3.15;;;7.60;99.90;;;;;;5053027;28;20567;-71
2022/12/24 05:27:42;;;;;;;17.20;3.80;;;7.60;99.90;;;;;;5048567;28;20043;-71
2022/12/24 05:30:08;;;;;;;15.82;3.65;;;7.60;99.90;;;;;;5059117;28;20024;-71
2022/12/24 05:32:33;;;;;;;12.73;3.30;;;7.60;99.90;;;;;;5054083;28;20032;-71
2022/12/24 05:34:59;;;;;;;21.40;3.72;;;7.60;99.90;;;;;;5053231;28;20055;-72
2022/12/24 05:37:24;;;;;;;15.20;3.10;;;7.60;99.90;;;;;;5056138;28;20032;-72
2022/12/24 05:39:50;;;;;;;18.35;3.38;;;7.60;99.90;;;;;;5059336;28;20036;-71
2022/12/24 05:42:16;;;;;;;18.80;4.80;;;7.60;99.90;;;;;;5056675;28;20044;-71
2022/12/24 05:44:41;;;;;;;16.63;3.55;;;7.60;99.90;;;;;;5056888;28;20041;-71
2022/12/24 05:47:07;;;;;;;12.57;3.60;;;7.60;99.90;;;;;;5067987;28;20144;-71
2022/12/24 05:49:33;;;;;;;26.27;4.00;;;7.60;99.90;;;;;;5079558;28;20768;-72
2022/12/24 05:51:58;;;;;;;23.63;3.85;;;7.60;99.90;;;;;;5078549;28;20110;-71
2022/12/24 05:54:24;;;;;;;17.52;3.40;;;7.60;99.90;;;;;;5072527;28;20040;-72
2022/12/24 05:56:49;;;;;;;20.40;3.80;;;7.60;99.90;;;;;;5077073;28;20488;-72
2022/12/24 05:59:15;;;;;;;24.75;4.72;;;7.60;99.90;;;;;;5071801;28;20024;-71
2022/12/24 06:01:44;;;;;;;14.88;3.70;;;7.60;99.90;;;;;;5078343;28;20032;-72
2022/12/24 06:04:09;;;;;;;17.98;3.90;;;7.60;99.90;;;;;;5078601;28;20024;-71
2022/12/24 06:06:35;;;;;;;16.25;3.58;;;7.60;99.90;;;;;;5079919;28;20482;-71
2022/12/24 06:09:01;;;;;;;17.70;3.90;;;7.70;99.90;;;;;;5082318;28;20526;-71
2022/12/24 06:11:27;;;;;;;20.92;3.90;;;7.70;99.90;;;;;;5086138;28;20024;-71
2022/12/24 06:13:53;;;;;;;21.42;4.35;;;7.70;99.90;;;;;;5086036;28;20106;-71
2022/12/24 06:16:20;;;;;;;25.38;4.63;;;7.70;99.90;;;;;;5089205;28;20172;-71
2022/12/24 06:18:46;;;;;;;18.73;4.35;;;7.70;99.90;;;;;;5084673;28;20043;-71
2022/12/24 06:21:12;;;;;;;23.88;4.55;;;7.70;99.90;;;;;;5087475;28;20028;-71
2022/12/24 06:23:39;;;;;;;24.20;4.10;;;7.70;99.90;;;;;;5083871;28;20433;-71
2022/12/24 06:26:06;;;;;;;26.08;4.97;;;7.60;99.90;;;;;;5082426;28;20052;-71
2022/12/24 06:28:34;;;;;;;20.90;4.95;;;7.70;99.90;;;;;;5081306;28;20047;-71
2022/12/24 06:31:00;;;;;;;22.73;5.22;;;7.70;99.90;;;;;;5090266;28;20032;-71
2022/12/24 06:33:26;;;;;;;25.63;4.45;;;7.60;99.90;;;;;;5083167;28;20162;-71
2022/12/24 06:35:52;;;;;;;21.17;4.57;;;7.70;99.90;;;;;;5087858;28;20054;-71
2022/12/24 06:38:17;;;;;;;24.45;4.32;;;7.70;99.90;;;;;;5086027;28;20060;-71
2022/12/24 06:40:45;;;;;;;27.73;4.22;;;7.60;99.90;;;;;;5082695;28;20405;-71
2022/12/24 06:43:11;;;;;;;20.70;4.22;;;7.60;99.90;;;;;;5083069;28;20027;-71
2022/12/24 06:45:36;;;;;;;25.88;4.47;;;7.60;99.90;;;;;;5087810;28;20056;-71
2022/12/24 06:48:03;;;;;;;27.83;4.80;;;7.60;99.90;;;;;;5083941;28;20080;-71
2022/12/24 06:50:28;;;;;;;24.92;4.25;;;7.60;99.90;;;;;;5082251;28;20111;-71
2022/12/24 06:52:54;;;;;;;25.65;4.03;;;7.60;99.90;;;;;;5080022;28;20095;-71
2022/12/24 06:55:20;;;;;;;26.80;4.43;;;7.50;99.90;;;;;;5087221;28;20028;-71
2022/12/24 06:57:46;;;;;;;31.95;4.55;;;7.50;99.90;;;;;;5084050;28;20043;-71
2022/12/24 07:00:12;;;;;;;26.30;4.05;;;7.50;99.90;;;;;;5079491;28;20390;-72
2022/12/24 07:02:44;;;;;;;23.58;4.30;;;7.50;99.90;;;;;;5075370;28;20039;-71
2022/12/24 07:05:11;;;;;;;22.23;4.38;;;7.50;99.90;;;;;;5074699;28;20089;-72
2022/12/24 07:07:41;;;;;;;21.38;4.40;;;7.50;99.90;;;;;;5082337;28;20034;-71
2022/12/24 07:10:09;;;;;;;27.60;3.58;;;7.50;99.90;;;;;;5078003;28;20115;-71
2022/12/24 07:12:34;;;;;;;18.98;3.50;;;7.60;99.90;;;;;;5084132;28;20124;-71
2022/12/24 07:15:00;;;;;;;23.33;4.10;;;7.60;99.90;;;;;;5085223;28;20432;-72
2022/12/24 07:17:26;;;;;;;19.70;3.47;;;7.60;99.90;;;;;;5074242;28;20060;-70
2022/12/24 07:19:51;;;;;;;22.38;4.32;;;7.60;99.90;;;;;;5073393;28;20020;-70
2022/12/24 07:22:17;;;;;;;20.15;3.72;;;7.60;99.90;;;;;;5067567;28;20076;-70
2022/12/24 07:24:43;;;;;;;17.05;3.40;;;7.60;99.90;;;;;;5080912;28;20040;-70
2022/12/24 07:27:09;;;;;;;17.48;3.50;;;7.60;99.90;;;;;;5079480;28;20085;-70
2022/12/24 07:29:34;;;;;;;21.17;4.18;;;7.60;99.90;;;;;;5084092;28;20130;-71
2022/12/24 07:32:00;;;;;;;19.40;3.65;;;7.60;99.90;;;;;;5087436;28;20016;-70
2022/12/24 07:34:25;;;;;;;23.15;3.83;;;7.60;99.90;;;;;;5082797;28;20020;-69
2022/12/24 07:36:51;;;;;;;18.77;3.90;;;7.60;99.90;;;;;;5082763;28;20078;-69
2022/12/24 07:39:17;;;;;;;24.95;6.13;;;7.60;99.90;;;;;;5079250;28;20519;-69
2022/12/24 07:41:42;;;;;;;21.92;4.00;;;7.60;99.90;;;;;;5090606;28;20043;-70
2022/12/24 07:44:12;;;;;;;26.80;3.92;;;7.60;99.90;;;;;;5082440;28;20024;-69
2022/12/24 07:46:38;;;;;;;25.23;3.95;;;7.60;99.90;;;;;;5082604;28;20248;-70
2022/12/24 07:49:04;;;;;;;19.73;3.17;;;7.50;99.90;;;;;;5078086;28;20826;-70
2022/12/24 07:51:29;;;;;;;23.10;3.42;;;7.50;99.90;;;;;;5080606;28;20020;-70
2022/12/24 07:53:55;;;;;;;30.75;3.97;;;7.50;99.90;;;;;;5081387;28;20044;-70
2022/12/24 07:56:21;;;;;;;14.93;2.72;;;7.50;99.90;;;;;;5082099;28;20032;-70
2022/12/24 07:58:48;;;;;;;23.85;3.47;;;7.50;99.90;;;;;;5084091;28;20477;-71
2022/12/24 08:01:14;;;;;;;26.35;3.65;;;7.50;99.90;;;;;;5084542;28;20028;-70
2022/12/24 08:03:39;;;;;;;17.42;2.83;;;7.50;99.90;;;;;;5077497;28;20081;-70
2022/12/24 08:06:05;;;;;;;15.45;3.13;;;7.60;99.90;;;;;;5081737;28;20027;-70
2022/12/24 08:08:31;;;;;;;15.23;2.90;;;7.60;99.90;;;;;;5074635;28;20434;-70
2022/12/24 08:11:01;;;;;;;15.65;2.92;;;7.60;99.90;;;;;;5084122;28;20032;-70
2022/12/24 08:13:27;;;;;;;16.67;3.00;;;7.60;99.90;;;;;;5079721;28;20108;-70
2022/12/24 08:15:53;;;;;;;26.50;5.63;;;7.60;99.90;;;;;;5079698;28;20024;-70
2022/12/24 08:18:19;;;;;;;18.95;3.92;;;7.60;99.90;;;;;;5085172;28;20027;-70
2022/12/24 08:20:45;;;;;;;20.23;4.70;;;7.70;99.90;;;;;;5085466;28;20081;-71
2022/12/24 08:23:10;;;;;;;19.15;4.53;;;7.70;99.90;;;;;;5079777;28;20028;-70
2022/12/24 08:25:36;;;;;;;15.85;4.03;;;7.70;99.90;;;;;;5082669;28;20039;-71
2022/12/24 08:28:03;;;;;;;15.63;3.22;;;7.70;99.90;;;;;;5079351;28;20032;-71
2022/12/24 08:30:28;;;;;;;15.27;3.30;;;7.80;99.90;;;;;;5078077;28;20071;-70
2022/12/24 08:32:54;;;;;;;12.75;2.63;;;7.80;99.90;;;;;;5082954;28;20044;-70
2022/12/24 08:35:20;;;;;;;10.27;3.08;;;7.80;99.90;;;;;;5081561;28;20036;-70
2022/12/24 08:37:45;;;;;;;13.57;3.20;;;7.80;99.90;;;;;;5082050;28;20036;-70
2022/12/24 08:40:12;;;;;;;11.82;3.00;;;7.90;99.90;;;;;;5081543;28;20032;-70
2022/12/24 08:42:38;;;;;;;12.10;2.95;;;7.90;99.90;;;;;;5082982;28;20390;-70
2022/12/24 08:45:04;;;;;;;11.65;2.53;;;8.00;99.90;;;;;;5080745;28;20040;-70
2022/12/24 08:47:30;;;;;;;10.07;2.38;;;8.00;99.90;;;;;;5076242;28;20040;-70
2022/12/24 08:49:55;;;;;;;11.13;2.15;;;8.10;99.90;;;;;;5077909;28;20043;-70
2022/12/24 08:52:21;;;;;;;13.38;2.50;;;8.10;99.90;;;;;;5077096;28;20544;-70
2022/12/24 08:54:46;;;;;;;9.98;2.20;;;8.10;99.90;;;;;;5081969;28;20024;-70
2022/12/24 08:57:13;;;;;;;13.10;2.60;;;8.20;99.90;;;;;;5079575;28;20054;-70
2022/12/24 08:59:39;;;;;;;16.63;2.95;;;8.20;99.90;;;;;;5082755;28;20035;-70
2022/12/24 09:02:05;;;;;;;10.02;2.78;;;8.20;99.90;;;;;;5078620;28;20024;-70
2022/12/24 09:04:31;;;;;;;10.77;3.13;;;8.20;99.90;;;;;;5081216;28;20039;-69
2022/12/24 09:06:56;;;;;;;12.60;2.35;;;8.20;99.90;;;;;;5078228;28;20028;-70
2022/12/24 09:09:22;;;;;;;9.55;2.25;;;8.30;99.90;;;;;;5078492;28;20755;-69
2022/12/24 09:11:51;;;;;;;10.65;2.58;;;8.30;99.90;;;;;;5080531;28;20539;-69
2022/12/24 09:14:17;;;;;;;12.55;2.78;;;8.30;99.90;;;;;;5079888;28;20441;-69
2022/12/24 09:16:43;;;;;;;10.38;2.38;;;8.40;99.90;;;;;;5072644;28;20020;-69
2022/12/24 09:19:08;;;;;;;10.00;2.13;;;8.50;99.90;;;;;;5080084;28;20121;-70
2022/12/24 09:21:34;;;;;;;13.32;2.72;;;8.50;99.90;;;;;;5079808;28;20028;-70
2022/12/24 09:24:00;;;;;;;10.90;1.80;;;;;;;;;;5079632;28;20636;-70
2022/12/24 09:26:28;;;;;;;10.55;1.98;;;8.60;99.90;;;;;;5083943;28;20028;-70
2022/12/24 09:28:55;;;;;;;12.32;2.45;;;8.50;99.90;;;;;;5073828;28;20032;-69
2022/12/24 09:31:21;;;;;;;10.02;2.65;;;8.50;99.90;;;;;;5084425;28;20020;-70
2022/12/24 09:33:48;;;;;;;6.97;2.42;;;8.50;99.90;;;;;;5074772;28;20073;-69
2022/12/24 09:36:14;;;;;;;10.10;3.00;;;8.50;99.90;;;;;;5077903;28;20035;-70
2022/12/24 09:38:40;;;;;;;11.48;2.22;;;8.50;99.90;;;;;;5077007;28;20482;-70
2022/12/24 09:41:27;;;;;;;5.78;1.75;;;8.50;99.90;;;;;;5079209;28;20032;-70
2022/12/24 09:43:58;;;;;;;9.35;2.88;;;8.50;99.90;;;;;;5074954;28;20028;-70
2022/12/24 09:46:30;;;;;;;8.70;2.13;;;8.70;99.90;;;;;;5075989;28;20450;-71
2022/12/24 09:48:58;;;;;;;11.75;2.47;;;;;;;;;;5076659;28;20105;-69
2022/12/24 09:51:39;;;;;;;5.65;1.95;;;8.50;99.90;;;;;;5076859;28;20114;-70
2022/12/24 09:54:21;;;;;;;8.43;2.53;;;8.50;99.90;;;;;;5073292;28;20150;-70
2022/12/24 09:56:48;;;;;;;10.70;2.20;;;8.60;99.90;;;;;;5077438;28;20591;-70
2022/12/24 09:59:17;;;;;;;7.90;2.03;;;8.60;99.90;;;;;;5069679;28;20137;-70
2022/12/24 10:01:42;;;;;;;8.23;2.17;;;8.60;99.90;;;;;;5080663;28;20043;-70
2022/12/24 10:04:17;;;;;;;10.35;2.03;;;8.60;99.90;;;;;;5076938;28;20507;-71
2022/12/24 10:06:43;;;;;;;6.22;1.80;;;8.60;99.90;;;;;;5075570;28;20036;-70
2022/12/24 10:09:23;;;;;;;10.35;2.00;;;8.70;99.90;;;;;;5071303;28;20863;-70
2022/12/24 10:12:11;;;;;;;8.50;2.10;;;8.70;99.90;;;;;;5070467;28;20032;-70
2022/12/24 10:14:49;;;;;;;13.30;2.40;;;8.70;99.90;;;;;;5081711;28;20076;-70
2022/12/24 10:17:38;;;;;;;9.90;2.20;;;8.80;99.90;;;;;;5076704;28;20775;-70
2022/12/24 10:20:04;;;;;;;10.93;2.22;;;8.90;99.90;;;;;;5073892;28;20389;-70
2022/12/24 10:22:48;;;;;;;9.85;2.08;;;8.90;99.90;;;;;;5073128;28;20024;-71
2022/12/24 10:25:20;;;;;;;14.60;3.15;;;8.90;99.90;;;;;;5066571;28;20056;-70
2022/12/24 10:27:46;;;;;;;11.93;2.40;;;8.90;99.90;;;;;;5070193;28;20540;-70
2022/12/24 10:30:18;;;;;;;8.57;2.47;;;8.90;99.90;;;;;;5072087;28;20088;-71
2022/12/24 10:32:46;;;;;;;11.32;2.58;;;8.90;99.90;;;;;;5075725;28;20044;-71
2022/12/24 10:35:15;;;;;;;14.27;3.38;;;8.90;99.90;;;;;;5076891;28;20117;-70
2022/12/24 10:37:43;;;;;;;16.23;3.20;;;8.90;99.90;;;;;;5078754;28;20123;-70
2022/12/24 10:40:49;;;;;;;12.85;2.80;;;8.90;99.90;;;;;;5079703;28;20547;-70
2022/12/24 10:43:19;;;;;;;11.10;2.60;;;9.00;99.90;;;;;;5070864;28;20020;-70
2022/12/24 10:46:08;;;;;;;14.90;2.67;;;9.00;99.90;;;;;;5076157;28;20050;-71
2022/12/24 10:48:39;;;;;;;9.52;2.83;;;9.00;99.90;;;;;;5074724;28;20050;-71
2022/12/24 10:51:13;;;;;;;11.00;2.75;;;9.00;99.90;;;;;;5081942;28;20016;-72
2022/12/24 10:53:53;;;;;;;14.10;3.40;;;9.10;99.90;;;;;;5077399;28;20024;-71
2022/12/24 10:56:20;;;;;;;15.88;3.03;;;9.10;99.90;;;;;;5079485;28;20032;-71
2022/12/24 10:58:52;;;;;;;12.90;2.78;;;9.10;99.90;;;;;;4370560;28;10000789;-71
2022/12/24 11:01:38;;;;;;;9.70;2.30;;;9.10;99.90;;;;;;5070692;28;20119;-71
2022/12/24 11:04:04;;;;;;;15.23;2.83;;;9.20;99.90;;;;;;5073408;28;20071;-71
2022/12/24 11:06:30;;;;;;;13.25;3.22;;;9.30;99.90;;;;;;5077902;28;20117;-71
2022/12/24 11:09:19;;;;;;;8.65;2.80;;;9.40;99.90;;;;;;5071819;28;20052;-73
2022/12/24 11:11:45;;;;;;;13.73;3.60;;;9.50;99.90;;;;;;5076643;28;20089;-71
2022/12/24 11:14:15;;;;;;;15.88;3.42;;;9.60;99.90;;;;;;5078614;28;20020;-72
2022/12/24 11:16:49;;;;;;;10.52;2.88;;;9.60;99.90;;;;;;5083467;28;20032;-72
2022/12/24 11:19:25;;;;;;;16.98;3.35;;;9.60;99.90;;;;;;5076941;28;20272;-73
2022/12/24 11:22:05;;;;;;;18.90;3.25;;;9.70;99.90;;;;;;5075571;28;20030;-71
2022/12/24 11:24:36;;;;;;;16.88;3.50;;;9.70;99.90;;;;;;5071781;28;20051;-71
2022/12/24 11:27:29;;;;;;;16.90;3.80;;;9.80;99.90;;;;;;5078528;28;20524;-71
2022/12/24 11:30:28;;;;;;;10.80;3.28;;;9.80;99.90;;;;;;5075019;28;20032;-71
2022/12/24 11:32:59;;;;;;;15.55;3.80;;;9.90;99.90;;;;;;5074425;28;20043;-71
2022/12/24 11:35:25;;;;;;;17.60;3.33;;;10.00;99.90;;;;;;5073188;28;20604;-71
2022/12/24 11:38:00;;;;;;;16.58;3.60;;;10.10;99.90;;;;;;5076128;28;20606;-71
2022/12/24 11:40:38;;;;;;;19.95;4.20;;;10.00;99.90;;;;;;5088562;28;20028;-71
2022/12/24 11:43:05;;;;;;;19.85;3.90;;;10.00;99.90;;;;;;5077863;28;20032;-71
2022/12/24 11:45:33;;;;;;;14.52;3.70;;;10.00;99.90;;;;;;5074657;28;20420;-70
2022/12/24 11:47:59;;;;;;;16.52;4.50;;;10.00;99.90;;;;;;5076615;28;20124;-72
2022/12/24 11:50:35;;;;;;;18.90;3.97;;;9.90;99.90;;;;;;5069022;28;20040;-72
2022/12/24 11:53:03;;;;;;;21.77;4.53;;;9.90;99.90;;;;;;5081013;28;20035;-71
2022/12/24 11:55:46;;;;;;;17.63;4.30;;;9.90;99.90;;;;;;5069391;28;20731;-69
2022/12/24 11:58:38;;;;;;;15.73;3.10;;;9.90;99.90;;;;;;5081772;28;20477;-70
2022/12/24 12:01:19;;;;;;;13.30;3.65;;;9.80;99.90;;;;;;5067681;28;22823;-71
2022/12/24 12:04:03;;;;;;;18.60;4.03;;;9.70;99.90;;;;;;5072988;28;20113;-70
2022/12/24 12:06:38;;;;;;;20.67;4.40;;;9.70;99.90;;;;;;5075828;28;20174;-71
2022/12/24 12:09:16;;;;;;;23.30;4.40;;;9.60;99.90;;;;;;5067418;28;20034;-70
2022/12/24 12:11:46;;;;;;;21.17;4.30;;;9.60;99.90;;;;;;5070028;28;20051;-71
2022/12/24 12:14:21;;;;;;;15.65;3.95;;;9.50;99.90;;;;;;5065951;28;20035;-70
2022/12/24 12:17:00;;;;;;;20.52;4.80;;;9.50;99.90;;;;;;5063494;28;20114;-70
2022/12/24 12:19:37;;;;;;;23.25;4.80;;;9.50;99.90;;;;;;5065037;28;20062;-70
2022/12/24 12:22:06;;;;;;;17.00;4.35;;;9.50;99.90;;;;;;5065433;28;20035;-71
2022/12/24 12:24:37;;;;;;;26.00;5.50;;;9.40;99.90;;;;;;5061643;28;20078;-71
2022/12/24 12:27:16;;;;;;;23.65;5.93;;;9.40;99.90;;;;;;5064784;28;20809;-71
2022/12/24 12:29:48;;;;;;;24.42;7.30;;;9.50;99.90;;;;;;5064319;28;20118;-70
2022/12/24 12:32:35;;;;;;;22.27;5.40;;;9.60;99.90;;;;;;5066220;28;20028;-71
2022/12/24 12:35:14;;;;;;;19.13;4.90;;;9.60;99.90;;;;;;5066128;28;20032;-71
2022/12/24 12:37:44;;;;;;;15.50;5.13;;;9.60;99.90;;;;;;5067373;28;20712;-70
2022/12/24 12:40:16;;;;;;;16.05;4.47;;;9.60;99.90;;;;;;5067327;28;20167;-70
2022/12/24 12:43:11;;;;;;;23.55;7.45;;;9.80;99.90;;;;;;5065288;28;20066;-70
2022/12/24 12:45:55;;;;;;;25.85;5.93;;;9.90;99.90;;;;;;5033608;28;20039;-70
2022/12/24 12:48:51;;;;;;;21.13;5.70;;;10.00;99.90;;;;;;5064232;28;20032;-70
2022/12/24 12:51:27;;;;;;;22.65;6.75;;;10.00;99.90;;;;;;5052306;28;20031;-70
2022/12/24 12:53:59;;;;;;;24.52;6.45;;;;;;;;;;5061727;28;20039;-70
2022/12/24 12:56:35;;;;;;;21.65;5.18;;;;;;;;;;5059746;28;20092;-69
2022/12/24 12:59:11;;;;;;;18.67;4.93;;;10.00;99.90;;;;;;5061921;28;20046;-70
2022/12/24 13:01:55;;;;;;;16.75;5.40;;;10.00;99.90;;;;;;5063189;28;20035;-70
2022/12/24 13:04:39;;;;;;;19.90;5.50;;;9.90;99.90;;;;;;5063778;28;20408;-70
2022/12/24 13:07:18;;;;;;;18.83;5.30;;;9.90;99.90;;;;;;5066168;28;20028;-70
2022/12/24 13:10:33;;;;;;;19.08;5.20;;;9.90;99.90;;;;;;5066529;28;20036;-70
2022/12/24 13:13:05;;;;;;;15.57;5.15;;;9.90;99.90;;;;;;5062380;28;20116;-70